createdAt,value
2019-04-05T00:01:46.802Z,66.80
2019-04-05T00:04:18.805Z,67.20
2019-04-05T00:06:50.669Z,67.20
2019-04-05T00:09:21.683Z,67.30
2019-04-05T00:11:52.422Z,67.20
2019-04-05T00:14:23.157Z,67.40
2019-04-05T00:16:53.814Z,67.40
2019-04-05T00:19:24.760Z,67.40
2019-04-05T00:21:55.394Z,67.70
2019-04-05T00:24:26.370Z,67.80
2019-04-05T00:26:57.568Z,68.00
2019-04-05T00:29:28.401Z,68.00
2019-04-05T00:31:59.268Z,68.00
2019-04-05T00:34:30.567Z,68.20
2019-04-05T00:37:01.251Z,68.60
2019-04-05T00:39:31.888Z,68.40
2019-04-05T00:42:02.487Z,68.50
2019-04-05T00:44:33.189Z,68.40
2019-04-05T00:47:03.816Z,68.30
2019-04-05T00:49:34.542Z,69.80
2019-04-05T00:52:05.102Z,68.70
2019-04-05T00:54:35.812Z,68.70
2019-04-05T00:57:06.688Z,68.40
2019-04-05T00:59:37.297Z,68.00
2019-04-05T01:02:08.115Z,68.30
2019-04-05T01:04:40.063Z,68.20
2019-04-05T01:07:11.275Z,68.20
2019-04-05T01:09:43.067Z,68.30
2019-04-05T01:12:14.101Z,68.40
2019-04-05T01:14:45.170Z,68.60
2019-04-05T01:17:24.730Z,68.40
2019-04-05T01:19:50.891Z,68.50
2019-04-05T01:22:25.105Z,68.60
2019-04-05T01:24:56.037Z,68.40
2019-04-05T01:27:27.507Z,68.90
2019-04-05T01:29:58.297Z,68.80
2019-04-05T01:32:29.059Z,68.50
2019-04-05T01:35:01.228Z,68.20
2019-04-05T01:37:31.794Z,68.50
2019-04-05T01:40:03.262Z,68.50
2019-04-05T01:42:34.201Z,68.90
2019-04-05T01:45:05.453Z,69.20
2019-04-05T01:47:36.436Z,69.40
2019-04-05T01:50:08.182Z,69.60
2019-04-05T01:52:39.256Z,69.80
2019-04-05T01:55:10.202Z,69.80
2019-04-05T01:57:40.829Z,69.80
2019-04-05T02:00:13.401Z,69.80
2019-04-05T02:02:44.021Z,69.80
2019-04-05T02:05:15.100Z,69.80
2019-04-05T02:07:45.862Z,70.00
2019-04-05T02:10:16.809Z,70.50
2019-04-05T02:12:47.326Z,70.50
2019-04-05T02:15:28.248Z,70.50
2019-04-05T02:17:59.187Z,70.70
2019-04-05T02:20:30.505Z,70.50
2019-04-05T02:23:01.547Z,70.50
2019-04-05T02:25:32.289Z,70.70
2019-04-05T02:28:03.068Z,70.70
2019-04-05T02:30:33.795Z,70.70
2019-04-05T02:33:04.363Z,70.30
2019-04-05T02:35:38.958Z,70.30
2019-04-05T02:38:07.645Z,70.80
2019-04-05T02:40:40.345Z,70.40
2019-04-05T02:43:13.460Z,70.50
2019-04-05T02:45:45.464Z,70.50
2019-04-05T02:48:17.620Z,70.40
2019-04-05T02:50:51.944Z,70.80
2019-04-05T02:53:23.845Z,70.90
2019-04-05T02:55:55.170Z,71.00
2019-04-05T02:58:26.781Z,71.30
2019-04-05T03:00:59.006Z,71.40
2019-04-05T03:03:30.165Z,71.40
2019-04-05T03:06:00.931Z,71.90
2019-04-05T03:08:31.597Z,71.60
2019-04-05T03:11:12.417Z,71.60
2019-04-05T03:13:54.120Z,72.20
2019-04-05T03:16:40.879Z,72.00
2019-04-05T03:19:17.721Z,71.60
2019-04-05T03:21:52.214Z,71.50
2019-04-05T03:24:26.020Z,71.60
2019-04-05T03:27:02.755Z,71.40
2019-04-05T03:29:34.667Z,71.90
2019-04-05T03:32:06.218Z,72.30
2019-04-05T03:34:37.825Z,72.20
2019-04-05T03:37:08.907Z,72.20
2019-04-05T03:39:39.584Z,71.90
2019-04-05T03:42:11.236Z,72.20
2019-04-05T03:44:44.158Z,71.90
2019-04-05T03:47:15.011Z,72.90
2019-04-05T03:49:47.109Z,71.90
2019-04-05T03:52:18.400Z,71.90
2019-04-05T03:54:49.526Z,71.90
2019-04-05T03:57:20.010Z,72.00
2019-04-05T03:59:50.809Z,72.50
2019-04-05T04:02:23.495Z,72.60
2019-04-05T04:04:53.922Z,72.70
2019-04-05T04:07:24.780Z,72.80
2019-04-05T04:09:55.378Z,72.90
2019-04-05T04:12:26.390Z,73.40
2019-04-05T04:14:58.579Z,73.30
2019-04-05T04:17:29.529Z,73.30
2019-04-05T04:20:00.724Z,73.50
2019-04-05T04:22:32.249Z,74.10
2019-04-05T04:25:02.882Z,74.40
2019-04-05T04:27:34.034Z,74.60
2019-04-05T04:30:05.997Z,74.70
2019-04-05T04:32:37.317Z,75.10
2019-04-05T04:35:09.044Z,75.10
2019-04-05T04:37:39.939Z,75.20
2019-04-05T04:40:11.865Z,75.70
2019-04-05T04:42:43.216Z,75.80
2019-04-05T04:45:13.848Z,76.00
2019-04-05T04:47:44.305Z,76.10
2019-04-05T04:50:16.141Z,77.80
2019-04-05T04:52:46.991Z,76.90
2019-04-05T04:55:17.938Z,75.40
2019-04-05T04:57:48.979Z,75.70
2019-04-05T05:00:22.672Z,74.70
2019-04-05T05:02:53.839Z,74.50
2019-04-05T05:05:24.549Z,74.20
2019-04-05T05:07:55.419Z,74.60
2019-04-05T05:10:26.238Z,73.60
2019-04-05T05:12:57.566Z,73.90
2019-04-05T05:15:28.773Z,73.30
2019-04-05T05:18:00.308Z,73.40
2019-04-05T05:20:30.934Z,71.90
2019-04-05T05:23:02.418Z,72.10
2019-04-05T05:25:34.941Z,72.10
2019-04-05T05:28:05.710Z,72.10
2019-04-05T05:30:36.259Z,71.40
2019-04-05T05:33:07.012Z,71.60
2019-04-05T05:35:37.899Z,71.20
2019-04-05T05:38:08.523Z,69.80
2019-04-05T05:40:41.082Z,69.20
2019-04-05T05:43:11.640Z,68.30
2019-04-05T05:45:42.155Z,67.60
2019-04-05T05:48:12.969Z,66.80
2019-04-05T05:50:44.192Z,65.80
2019-04-05T05:53:15.071Z,64.40
2019-04-05T05:55:45.898Z,63.50
2019-04-05T05:58:16.728Z,64.10
2019-04-05T06:00:48.002Z,64.10
2019-04-05T06:03:19.125Z,64.80
2019-04-05T06:06:03.186Z,65.20
2019-04-05T06:08:22.156Z,63.70
2019-04-05T06:10:52.892Z,63.20
2019-04-05T06:13:23.629Z,62.50
2019-04-05T06:15:54.158Z,60.70
2019-04-05T06:18:24.806Z,59.70
2019-04-05T06:20:55.534Z,59.30
2019-04-05T06:23:33.604Z,58.70
2019-04-05T06:25:59.487Z,58.90
2019-04-05T06:28:31.218Z,57.30
2019-04-05T06:31:02.938Z,57.00
2019-04-05T06:33:35.825Z,54.90
2019-04-05T06:36:06.237Z,53.70
2019-04-05T06:38:37.767Z,54.00
2019-04-05T06:41:08.639Z,53.80
2019-04-05T06:43:39.210Z,53.30
2019-04-05T06:46:10.004Z,52.50
2019-04-05T06:48:41.032Z,50.70
2019-04-05T06:51:11.663Z,49.40
2019-04-05T06:53:42.411Z,48.50
2019-04-05T06:56:13.413Z,48.60
2019-04-05T06:58:46.365Z,46.70
2019-04-05T07:01:16.850Z,47.50
2019-04-05T07:03:47.490Z,47.00
2019-04-05T07:06:18.387Z,47.10
2019-04-05T07:08:54.111Z,47.10
2019-04-05T07:11:21.365Z,46.60
2019-04-05T07:13:52.108Z,45.60
2019-04-05T07:16:23.057Z,44.90
2019-04-05T07:18:53.888Z,44.40
2019-04-05T07:21:24.727Z,43.20
2019-04-05T07:23:55.740Z,43.90
2019-04-05T07:26:26.634Z,43.20
2019-04-05T07:28:57.386Z,43.10
2019-04-05T07:31:28.000Z,41.50
2019-04-05T07:33:58.772Z,41.70
2019-04-05T07:36:29.857Z,41.50
2019-04-05T07:39:00.456Z,41.40
2019-04-05T07:41:31.997Z,40.20
2019-04-05T07:44:03.022Z,40.00
2019-04-05T07:46:33.597Z,40.40
2019-04-05T07:49:04.322Z,40.00
2019-04-05T07:51:34.954Z,39.50
2019-04-05T07:54:05.770Z,40.30
2019-04-05T07:56:36.353Z,39.60
2019-04-05T07:59:07.238Z,39.30
2019-04-05T08:01:38.048Z,38.40
2019-04-05T08:04:08.777Z,38.30
2019-04-05T08:06:41.281Z,38.10
2019-04-05T08:09:13.876Z,38.40
2019-04-05T08:11:48.257Z,38.40
2019-04-05T08:14:19.895Z,38.20
2019-04-05T08:16:50.621Z,37.20
2019-04-05T08:19:21.574Z,37.40
2019-04-05T08:21:52.117Z,37.10
2019-04-05T08:24:22.974Z,35.80
2019-04-05T08:26:53.693Z,36.30
2019-04-05T08:29:24.329Z,37.00
2019-04-05T08:31:55.113Z,37.60
2019-04-05T08:34:25.745Z,37.10
2019-04-05T08:36:56.539Z,36.30
2019-04-05T08:39:27.554Z,36.30
2019-04-05T08:41:58.238Z,36.20
2019-04-05T08:44:28.788Z,36.20
2019-04-05T08:47:01.363Z,36.30
2019-04-05T08:49:31.919Z,35.80
2019-04-05T08:52:02.488Z,34.90
2019-04-05T08:54:36.489Z,34.30
2019-04-05T08:57:06.108Z,34.60
2019-04-05T08:59:36.652Z,35.20
2019-04-05T09:02:07.637Z,36.50
2019-04-05T09:04:38.068Z,37.70
2019-04-05T09:07:09.008Z,36.10
2019-04-05T09:09:39.768Z,36.70
2019-04-05T09:12:11.502Z,36.20
2019-04-05T09:14:42.230Z,36.10
2019-04-05T09:17:15.236Z,36.50
2019-04-05T09:19:46.254Z,35.90
2019-04-05T09:22:16.885Z,36.40
2019-04-05T09:24:48.348Z,35.70
2019-04-05T09:27:18.934Z,35.30
2019-04-05T09:29:49.553Z,36.10
2019-04-05T09:32:20.033Z,36.10
2019-04-05T09:34:51.049Z,35.90
2019-04-05T09:37:21.778Z,36.70
2019-04-05T09:39:53.983Z,37.10
2019-04-05T09:42:24.526Z,36.20
2019-04-05T09:44:54.996Z,37.10
2019-04-05T09:47:25.675Z,37.10
2019-04-05T09:49:56.223Z,37.20
2019-04-05T09:52:27.018Z,38.00
2019-04-05T09:54:57.579Z,38.20
2019-04-05T09:57:28.176Z,37.80
2019-04-05T09:59:58.611Z,38.60
2019-04-05T10:02:31.717Z,38.10
2019-04-05T10:05:01.651Z,38.30
2019-04-05T10:07:33.648Z,38.60
2019-04-05T10:10:05.058Z,37.80
2019-04-05T10:12:35.963Z,37.70
2019-04-05T10:15:07.432Z,38.30
2019-04-05T10:17:38.153Z,38.60
2019-04-05T10:20:09.085Z,38.80
2019-04-05T10:22:39.817Z,38.30
2019-04-05T10:25:10.682Z,37.80
2019-04-05T10:27:41.464Z,37.50
2019-04-05T10:30:13.448Z,37.30
2019-04-05T10:32:46.073Z,37.40
2019-04-05T10:35:16.336Z,38.20
2019-04-05T10:37:47.385Z,37.70
2019-04-05T10:40:18.976Z,37.00
2019-04-05T10:42:49.544Z,35.50
2019-04-05T10:45:20.660Z,36.20
2019-04-05T10:47:51.225Z,36.50
2019-04-05T10:50:22.432Z,37.20
2019-04-05T10:52:53.331Z,37.10
2019-04-05T10:55:24.134Z,36.40
2019-04-05T10:57:54.785Z,36.70
2019-04-05T11:00:26.164Z,36.50
2019-04-05T11:02:56.845Z,36.50
2019-04-05T11:05:27.348Z,35.90
2019-04-05T11:07:58.030Z,35.50
2019-04-05T11:10:28.498Z,35.60
2019-04-05T11:12:58.974Z,36.60
2019-04-05T11:15:31.012Z,36.90
2019-04-05T11:18:04.458Z,37.10
2019-04-05T11:20:34.169Z,35.80
2019-04-05T11:23:04.875Z,36.20
2019-04-05T11:25:35.588Z,36.30
2019-04-05T11:28:06.462Z,35.40
2019-04-05T11:30:40.622Z,35.60
2019-04-05T11:33:11.405Z,35.70
2019-04-05T11:35:42.517Z,35.20
2019-04-05T11:38:15.530Z,35.70
2019-04-05T11:40:46.695Z,36.10
2019-04-05T11:43:18.324Z,36.10
2019-04-05T11:45:50.849Z,35.60
2019-04-05T11:48:23.004Z,35.90
2019-04-05T11:50:53.702Z,35.40
2019-04-05T11:53:24.521Z,35.20
2019-04-05T11:55:55.141Z,35.10
2019-04-05T11:58:25.641Z,35.60
2019-04-05T12:01:14.012Z,36.10
2019-04-05T12:03:44.710Z,35.80
2019-04-05T12:06:15.253Z,36.10
2019-04-05T12:08:45.901Z,35.20
2019-04-05T12:11:16.619Z,35.00
2019-04-05T12:13:47.894Z,35.90
2019-04-05T12:16:18.443Z,35.90
2019-04-05T12:18:49.612Z,36.00
2019-04-05T12:21:21.082Z,34.90
2019-04-05T12:23:51.713Z,34.80
2019-04-05T12:26:22.373Z,35.00
2019-04-05T12:28:53.474Z,34.80
2019-04-05T12:31:25.012Z,35.40
2019-04-05T12:33:56.080Z,35.00
2019-04-05T12:36:27.149Z,34.60
2019-04-05T12:38:57.773Z,35.10
2019-04-05T12:41:28.443Z,34.90
2019-04-05T12:43:59.491Z,34.70
2019-04-05T12:46:30.237Z,34.00
2019-04-05T12:49:00.927Z,33.70
2019-04-05T12:51:31.458Z,33.70
2019-04-05T12:54:03.000Z,33.60
2019-04-05T12:56:33.674Z,33.20
2019-04-05T12:59:04.602Z,33.90
2019-04-05T13:01:35.512Z,34.40
2019-04-05T13:04:06.174Z,34.60
2019-04-05T13:06:36.998Z,34.60
2019-04-05T13:09:11.274Z,33.50
2019-04-05T13:11:42.314Z,33.30
2019-04-05T13:14:12.884Z,33.50
2019-04-05T13:16:43.535Z,33.20
2019-04-05T13:19:14.270Z,34.20
2019-04-05T13:21:45.117Z,34.40
2019-04-05T13:24:15.723Z,35.30
2019-04-05T13:26:46.870Z,36.00
2019-04-05T13:29:19.653Z,36.50
2019-04-05T13:31:50.117Z,36.50
2019-04-05T13:34:21.031Z,36.70
2019-04-05T13:36:51.671Z,36.60
2019-04-05T13:39:22.331Z,36.00
2019-04-05T13:41:53.077Z,35.60
2019-04-05T13:44:23.672Z,35.50
2019-04-05T13:46:54.349Z,34.00
2019-04-05T13:49:25.763Z,34.20
2019-04-05T13:51:56.593Z,34.30
2019-04-05T13:54:27.322Z,37.80
2019-04-05T13:56:57.978Z,40.30
2019-04-05T13:59:29.749Z,40.80
2019-04-05T14:02:06.037Z,41.00
2019-04-05T14:04:32.755Z,41.20
2019-04-05T14:07:04.079Z,41.60
2019-04-05T14:09:36.203Z,41.70
2019-04-05T14:12:09.504Z,42.50
2019-04-05T14:14:41.538Z,42.30
2019-04-05T14:17:13.778Z,43.20
2019-04-05T14:19:46.761Z,42.40
2019-04-05T14:22:18.173Z,42.30
2019-04-05T14:24:50.399Z,42.00
2019-04-05T14:27:21.420Z,42.30
2019-04-05T14:29:52.362Z,41.70
2019-04-05T14:32:23.186Z,42.00
2019-04-05T14:34:54.793Z,43.30
2019-04-05T14:37:25.667Z,43.80
2019-04-05T14:39:56.991Z,42.60
2019-04-05T14:42:29.657Z,42.50
2019-04-05T14:45:01.026Z,42.30
2019-04-05T14:47:31.698Z,42.20
2019-04-05T14:50:02.300Z,42.10
2019-04-05T14:52:33.117Z,42.10
2019-04-05T14:55:05.343Z,41.30
2019-04-05T14:57:36.739Z,41.20
2019-04-05T15:00:08.484Z,41.30
2019-04-05T15:02:40.637Z,42.10
2019-04-05T15:05:12.034Z,44.10
2019-04-05T15:07:42.984Z,44.50
2019-04-05T15:10:13.951Z,45.50
2019-04-05T15:12:44.798Z,45.40
2019-04-05T15:15:15.889Z,45.10
2019-04-05T15:17:48.295Z,45.40
2019-04-05T15:20:19.518Z,45.90
2019-04-05T15:22:50.316Z,46.60
2019-04-05T15:25:21.805Z,46.50
2019-04-05T15:27:55.473Z,46.70
2019-04-05T15:30:26.527Z,46.60
2019-04-05T15:32:58.588Z,47.20
2019-04-05T15:35:29.130Z,47.40
2019-04-05T15:38:02.053Z,47.50
2019-04-05T15:40:31.799Z,47.50
2019-04-05T15:43:02.729Z,48.20
2019-04-05T15:45:33.374Z,47.50
2019-04-05T15:48:03.887Z,47.50
2019-04-05T15:50:34.703Z,47.70
2019-04-05T15:53:05.498Z,48.20
2019-04-05T15:55:36.120Z,48.00
2019-04-05T15:58:07.007Z,48.10
2019-04-05T16:00:43.381Z,48.40
2019-04-05T16:03:15.065Z,48.40
2019-04-05T16:05:46.892Z,48.50
2019-04-05T16:08:19.175Z,48.20
2019-04-05T16:10:49.926Z,48.90
2019-04-05T16:13:21.028Z,48.20
2019-04-05T16:15:51.833Z,48.10
2019-04-05T16:18:22.726Z,48.10
2019-04-05T16:20:53.289Z,48.50
2019-04-05T16:23:24.298Z,49.10
2019-04-05T16:25:55.085Z,48.60
2019-04-05T16:28:26.971Z,47.30
2019-04-05T16:30:57.623Z,47.20
2019-04-05T16:33:29.380Z,47.60
2019-04-05T16:36:00.098Z,47.80
2019-04-05T16:38:30.714Z,48.70
2019-04-05T16:41:01.754Z,49.60
2019-04-05T16:43:32.393Z,49.90
2019-04-05T16:46:03.989Z,49.80
2019-04-05T16:48:34.461Z,49.90
2019-04-05T16:51:05.512Z,50.50
2019-04-05T16:53:37.948Z,50.60
2019-04-05T16:56:09.052Z,50.00
2019-04-05T16:58:40.260Z,50.00
2019-04-05T17:01:10.981Z,50.40
2019-04-05T17:03:41.607Z,50.70
2019-04-05T17:06:12.806Z,51.80
2019-04-05T17:08:45.460Z,51.30
2019-04-05T17:11:15.644Z,50.90
2019-04-05T17:13:46.513Z,50.70
2019-04-05T17:16:17.432Z,51.30
2019-04-05T17:18:48.373Z,50.40
2019-04-05T17:21:20.429Z,50.30
2019-04-05T17:23:51.543Z,50.80
2019-04-05T17:26:22.431Z,51.30
2019-04-05T17:28:54.120Z,50.70
2019-04-05T17:31:24.815Z,52.10
2019-04-05T17:33:55.904Z,52.10
2019-04-05T17:36:26.691Z,51.90
2019-04-05T17:38:57.543Z,51.30
2019-04-05T17:41:28.170Z,51.60
2019-04-05T17:43:58.889Z,51.20
2019-04-05T17:46:29.657Z,51.20
2019-04-05T17:49:00.465Z,52.30
2019-04-05T17:51:32.564Z,51.80
2019-04-05T17:54:03.695Z,52.30
2019-04-05T17:56:35.812Z,52.50
2019-04-05T17:59:06.421Z,52.50
2019-04-05T18:01:38.721Z,53.00
2019-04-05T18:04:09.760Z,53.80
2019-04-05T18:06:40.457Z,53.80
2019-04-05T18:09:11.475Z,54.00
2019-04-05T18:11:42.586Z,54.60
2019-04-05T18:14:14.287Z,54.40
2019-04-05T18:16:45.161Z,54.20
2019-04-05T18:19:16.188Z,54.30
2019-04-05T18:21:46.867Z,54.70
2019-04-05T18:24:17.898Z,54.00
2019-04-05T18:26:48.621Z,54.00
2019-04-05T18:29:19.545Z,54.30
2019-04-05T18:31:50.335Z,54.20
2019-04-05T18:34:21.234Z,54.20
2019-04-05T18:36:51.848Z,53.10
2019-04-05T18:39:22.677Z,53.10
2019-04-05T18:41:53.555Z,52.90
2019-04-05T18:44:24.280Z,51.80
2019-04-05T18:46:55.272Z,51.20
2019-04-05T18:49:26.193Z,50.70
2019-04-05T18:51:56.803Z,51.50
2019-04-05T18:54:27.833Z,51.70
2019-04-05T18:56:58.643Z,51.10
2019-04-05T18:59:29.340Z,51.70
2019-04-05T19:02:00.210Z,51.90
2019-04-05T19:04:31.297Z,51.90
2019-04-05T19:07:02.340Z,51.60
2019-04-05T19:09:33.379Z,51.90
2019-04-05T19:12:04.194Z,51.50
2019-04-05T19:14:35.159Z,51.50
2019-04-05T19:17:06.365Z,51.60
2019-04-05T19:19:37.174Z,51.70
2019-04-05T19:22:08.141Z,52.80
2019-04-05T19:24:38.952Z,52.00
2019-04-05T19:27:09.959Z,52.10
2019-04-05T19:29:40.670Z,52.40
2019-04-05T19:49:58.203Z,53.40
2019-04-05T19:52:28.829Z,53.70
2019-04-05T19:54:59.512Z,54.40
2019-04-05T19:57:30.246Z,54.60
2019-04-05T20:00:01.159Z,54.50
2019-04-05T20:02:32.080Z,54.50
2019-04-05T20:05:02.934Z,55.00
2019-04-05T20:07:33.734Z,55.30
2019-04-05T20:10:04.926Z,55.80
2019-04-05T20:12:35.681Z,56.10
2019-04-05T20:15:08.425Z,56.20
2019-04-05T20:17:39.522Z,56.50
2019-04-05T20:20:11.323Z,56.80
2019-04-05T20:22:42.502Z,57.50
2019-04-05T20:25:13.790Z,57.90
2019-04-05T20:27:44.669Z,58.00
2019-04-05T20:30:15.786Z,58.50
2019-04-05T20:32:46.813Z,58.40
2019-04-05T20:35:17.692Z,58.30
2019-04-05T20:37:48.716Z,58.50
2019-04-05T20:40:19.751Z,58.60
2019-04-05T20:42:51.043Z,58.40
2019-04-05T20:45:22.124Z,59.00
2019-04-05T20:47:53.170Z,59.30
2019-04-05T20:50:24.272Z,59.20
2019-04-05T20:52:55.681Z,59.10
2019-04-05T20:55:26.419Z,59.30
2019-04-05T20:57:57.252Z,59.70
2019-04-05T21:00:28.055Z,59.80
2019-04-05T21:02:58.696Z,60.30
2019-04-05T21:05:29.367Z,60.70
2019-04-05T21:08:00.324Z,60.80
2019-04-05T21:10:31.317Z,61.10
2019-04-05T21:13:02.160Z,61.00
2019-04-05T21:15:33.129Z,60.90
2019-04-05T21:18:03.828Z,61.30
2019-04-05T21:20:34.824Z,61.60
2019-04-05T21:23:05.630Z,61.70
2019-04-05T21:25:36.479Z,61.70
2019-04-05T21:28:07.382Z,61.90
2019-04-05T21:30:38.201Z,62.00
2019-04-05T21:33:08.987Z,61.40
2019-04-05T21:35:40.054Z,61.90
2019-04-05T21:38:11.000Z,62.30
2019-04-05T21:40:41.569Z,62.50
2019-04-05T21:43:12.261Z,62.60
2019-04-05T21:45:43.071Z,62.80
2019-04-05T21:48:13.937Z,63.00
2019-04-05T21:50:45.233Z,63.10
2019-04-05T21:53:16.098Z,63.40
2019-04-05T21:55:46.853Z,63.60
2019-04-05T21:58:17.479Z,63.50
2019-04-05T22:00:50.307Z,63.90
2019-04-05T22:03:22.114Z,64.00
2019-04-05T22:05:52.826Z,64.10
2019-04-05T22:08:23.587Z,64.10
2019-04-05T22:10:54.861Z,63.90
2019-04-05T22:13:25.409Z,64.60
2019-04-05T22:15:56.071Z,64.70
2019-04-05T22:18:26.688Z,64.70
2019-04-05T22:20:57.632Z,64.90
2019-04-05T22:23:28.275Z,64.60
2019-04-05T22:25:58.816Z,64.80
2019-04-05T22:28:30.559Z,64.50
2019-04-05T22:31:01.322Z,64.40
2019-04-05T22:33:32.080Z,64.50
2019-04-05T22:36:02.740Z,64.80
2019-04-05T22:38:33.254Z,65.00
2019-04-05T22:41:03.905Z,65.50
2019-04-05T22:43:34.862Z,65.40
2019-04-05T22:46:05.587Z,65.50
2019-04-05T22:48:36.290Z,66.70
2019-04-05T22:51:06.804Z,66.50
2019-04-05T22:53:37.407Z,65.90
2019-04-05T22:56:08.001Z,65.90
2019-04-05T22:58:38.727Z,66.20
2019-04-05T23:01:09.500Z,66.80
2019-04-05T23:03:40.128Z,67.10
2019-04-05T23:06:10.830Z,67.40
2019-04-05T23:08:41.495Z,67.40
2019-04-05T23:11:12.395Z,67.80
2019-04-05T23:13:43.113Z,68.00
2019-04-05T23:16:14.123Z,68.00
2019-04-05T23:18:45.919Z,68.30
2019-04-05T23:21:16.605Z,68.40
2019-04-05T23:23:47.245Z,68.60
2019-04-05T23:26:17.881Z,68.60
2019-04-05T23:28:48.622Z,68.40
2019-04-05T23:31:19.177Z,68.70
2019-04-05T23:33:50.276Z,68.70
2019-04-05T23:36:21.128Z,68.60
2019-04-05T23:38:51.814Z,69.40
2019-04-05T23:41:22.417Z,69.10
2019-04-05T23:43:53.809Z,68.90
2019-04-05T23:46:24.323Z,68.90
2019-04-05T23:48:55.129Z,68.50
2019-04-05T23:51:26.427Z,68.70
2019-04-05T23:53:57.258Z,68.90
2019-04-05T23:56:29.251Z,68.80
2019-04-05T23:59:01.218Z,69.00
